createdAt,value
2023-03-28T00:01:08.922Z,98142.28
2023-03-28T00:03:42.557Z,98143.41
2023-03-28T00:06:18.829Z,98140.38
2023-03-28T00:08:54.050Z,98148.91
2023-03-28T00:11:27.108Z,98157.72
2023-03-28T00:14:02.076Z,98160.94
2023-03-28T00:16:37.159Z,98156.75
2023-03-28T00:19:12.710Z,98108.25
2023-03-28T00:21:47.347Z,98158.09
2023-03-28T00:24:22.482Z,98159.09
2023-03-28T00:26:55.639Z,98151.44
2023-03-28T00:29:30.184Z,98154.09
2023-03-28T00:32:03.949Z,98146.94
2023-03-28T00:34:37.170Z,98139.63
2023-03-28T00:37:10.751Z,98140.59
2023-03-28T00:39:50.128Z,98141.28
2023-03-28T00:42:24.387Z,98142.28
2023-03-28T00:44:59.076Z,98148.19
2023-03-28T00:47:37.865Z,98137.72
2023-03-28T00:50:12.759Z,98128.59
2023-03-28T00:52:49.792Z,98131.09
2023-03-28T00:55:27.149Z,98127.56
2023-03-28T00:58:01.184Z,98132.31
2023-03-28T01:00:34.911Z,98123.28
2023-03-28T01:03:08.267Z,98121.53
2023-03-28T01:05:41.834Z,98126.25
2023-03-28T01:08:18.654Z,98123.72
2023-03-28T01:10:53.298Z,98134.56
2023-03-28T01:13:28.970Z,98131.03
2023-03-28T01:16:03.839Z,98129.03
2023-03-28T01:18:41.599Z,98134.19
2023-03-28T01:21:26.278Z,98130.19
2023-03-28T01:24:21.161Z,98136.69
2023-03-28T01:26:57.129Z,98128.50
2023-03-28T01:29:43.915Z,98147.06
2023-03-28T01:32:32.060Z,98129.66
2023-03-28T01:35:15.856Z,98131.22
2023-03-28T01:37:54.447Z,98147.94
2023-03-28T01:40:34.097Z,98143.78
2023-03-28T01:43:14.424Z,98163.31
2023-03-28T01:45:52.474Z,98146.19
2023-03-28T01:48:31.390Z,98137.28
2023-03-28T01:51:10.164Z,98156.66
2023-03-28T01:53:47.492Z,98152.38
2023-03-28T01:56:24.450Z,98148.75
2023-03-28T01:59:01.204Z,98157.50
2023-03-28T02:01:36.943Z,98166.16
2023-03-28T02:04:20.578Z,98156.78
2023-03-28T02:06:55.193Z,98183.28
2023-03-28T02:09:32.421Z,98175.78
2023-03-28T02:12:09.714Z,98180.78
2023-03-28T02:14:45.528Z,98178.28
2023-03-28T02:17:20.268Z,98201.13
2023-03-28T02:19:58.698Z,98204.56
2023-03-28T02:22:33.995Z,98195.00
2023-03-28T02:25:09.290Z,98204.84
2023-03-28T02:27:44.102Z,98208.44
2023-03-28T02:30:17.563Z,98219.47
2023-03-28T02:32:51.623Z,98220.34
2023-03-28T02:35:28.608Z,98213.41
2023-03-28T02:38:05.986Z,98222.16
2023-03-28T02:40:47.693Z,98223.22
2023-03-28T02:43:29.557Z,98225.09
2023-03-28T02:46:10.432Z,98215.44
2023-03-28T02:48:56.288Z,98230.16
2023-03-28T02:51:34.834Z,98202.38
2023-03-28T02:54:18.382Z,98233.38
2023-03-28T02:57:01.529Z,98225.91
2023-03-28T02:59:38.187Z,98246.00
2023-03-28T03:02:11.618Z,98241.66
2023-03-28T03:04:44.665Z,98242.25
2023-03-28T03:07:18.218Z,98249.88
2023-03-28T03:09:53.726Z,98269.16
2023-03-28T03:12:29.835Z,98254.09
2023-03-28T03:15:04.244Z,98256.91
2023-03-28T03:17:38.259Z,98247.25
2023-03-28T03:20:11.919Z,98246.44
2023-03-28T03:22:44.891Z,98260.81
2023-03-28T03:25:18.323Z,98282.19
2023-03-28T03:27:52.926Z,98272.16
2023-03-28T03:30:25.983Z,98280.81
2023-03-28T03:33:00.648Z,98282.22
2023-03-28T03:35:33.797Z,98300.06
2023-03-28T03:38:06.769Z,98285.97
2023-03-28T03:40:40.287Z,98298.13
2023-03-28T03:43:15.139Z,98289.03
2023-03-28T03:45:48.212Z,98286.25
2023-03-28T03:48:21.164Z,98281.97
2023-03-28T03:50:54.507Z,98302.44
2023-03-28T03:53:27.722Z,98294.88
2023-03-28T03:56:01.793Z,98301.00
2023-03-28T03:58:36.980Z,98292.28
2023-03-28T04:01:13.993Z,98291.56
2023-03-28T04:03:48.201Z,98298.94
2023-03-28T04:06:21.316Z,98290.78
2023-03-28T04:08:54.704Z,98301.38
2023-03-28T04:11:27.933Z,98300.56
2023-03-28T04:14:04.355Z,98291.91
2023-03-28T04:16:40.274Z,98310.91
2023-03-28T04:19:15.690Z,98300.50
2023-03-28T04:21:49.779Z,98299.44
2023-03-28T04:24:24.412Z,98310.56
2023-03-28T04:26:57.761Z,98314.09
2023-03-28T04:29:32.135Z,98318.88
2023-03-28T04:32:06.709Z,98313.44
2023-03-28T04:34:40.000Z,98331.72
2023-03-28T04:37:13.383Z,98331.31
2023-03-28T04:39:47.645Z,98322.66
2023-03-28T04:42:20.972Z,98337.38
2023-03-28T04:44:55.363Z,98361.00
2023-03-28T04:47:28.664Z,98358.66
2023-03-28T04:50:01.740Z,98353.56
2023-03-28T04:52:35.676Z,98376.97
2023-03-28T04:55:10.344Z,98364.56
2023-03-28T04:57:43.594Z,98364.34
2023-03-28T05:00:18.891Z,98373.19
2023-03-28T05:02:55.180Z,98375.53
2023-03-28T05:05:29.037Z,98392.16
2023-03-28T05:08:02.773Z,98388.53
2023-03-28T05:10:36.072Z,98381.97
2023-03-28T05:13:10.462Z,98380.81
2023-03-28T05:15:47.258Z,98382.53
2023-03-28T05:18:20.660Z,98405.06
2023-03-28T05:20:53.888Z,98389.44
2023-03-28T05:23:27.375Z,98403.97
2023-03-28T05:26:00.330Z,98418.16
2023-03-28T05:28:33.219Z,98410.16
2023-03-28T05:31:08.523Z,98407.31
2023-03-28T05:33:41.904Z,98427.91
2023-03-28T05:36:15.766Z,98446.75
2023-03-28T05:38:48.866Z,98412.56
2023-03-28T05:41:21.730Z,98433.75
2023-03-28T05:44:05.095Z,98428.03
2023-03-28T05:46:39.997Z,98414.78
2023-03-28T05:49:13.176Z,98454.53
2023-03-28T05:51:46.483Z,98446.22
2023-03-28T05:54:19.694Z,98433.56
2023-03-28T05:56:52.988Z,98447.31
2023-03-28T05:59:26.090Z,98451.13
2023-03-28T06:02:03.419Z,98442.78
2023-03-28T06:04:36.408Z,98464.78
2023-03-28T06:07:09.919Z,98444.94
2023-03-28T06:09:42.993Z,98451.00
2023-03-28T06:12:16.599Z,98458.03
2023-03-28T06:14:49.670Z,98451.88
2023-03-28T06:17:24.952Z,98463.81
2023-03-28T06:19:57.953Z,98443.34
2023-03-28T06:22:31.181Z,98478.97
2023-03-28T06:25:06.765Z,98463.34
2023-03-28T06:27:39.916Z,98494.16
2023-03-28T06:30:13.891Z,98498.16
2023-03-28T06:32:48.625Z,98500.69
2023-03-28T06:35:21.952Z,98508.16
2023-03-28T06:37:55.077Z,98491.13
2023-03-28T06:40:28.341Z,98491.22
2023-03-28T06:43:01.424Z,98500.34
2023-03-28T06:45:34.572Z,98509.47
2023-03-28T06:48:09.516Z,98505.59
2023-03-28T06:50:42.567Z,98524.69
2023-03-28T06:53:15.490Z,98509.34
2023-03-28T06:55:50.730Z,98516.78
2023-03-28T06:58:24.405Z,98523.19
2023-03-28T07:00:59.731Z,98526.72
2023-03-28T07:03:34.762Z,98520.03
2023-03-28T07:06:08.682Z,98525.44
2023-03-28T07:08:42.062Z,98521.22
2023-03-28T07:11:15.156Z,98518.72
2023-03-28T07:13:48.933Z,98546.72
2023-03-28T07:16:22.659Z,98544.53
2023-03-28T07:18:57.242Z,98567.41
2023-03-28T07:21:30.530Z,98538.69
2023-03-28T07:24:03.522Z,98551.75
2023-03-28T07:26:36.616Z,98539.47
2023-03-28T07:29:09.692Z,98568.09
2023-03-28T07:31:43.060Z,98546.59
2023-03-28T07:34:18.695Z,98586.66
2023-03-28T07:36:51.989Z,98560.13
2023-03-28T07:39:25.207Z,98574.69
2023-03-28T07:41:58.443Z,98573.34
2023-03-28T07:44:31.508Z,98589.91
2023-03-28T07:47:05.999Z,98607.88
2023-03-28T07:49:41.206Z,98595.84
2023-03-28T07:52:14.524Z,98613.28
2023-03-28T07:54:47.666Z,98588.97
2023-03-28T07:57:21.052Z,98585.44
2023-03-28T07:59:56.103Z,98591.47
2023-03-28T08:02:29.490Z,98588.72
2023-03-28T08:05:03.831Z,98598.38
2023-03-28T08:07:37.512Z,98603.00
2023-03-28T08:10:14.683Z,98623.66
2023-03-28T08:12:49.240Z,98632.56
2023-03-28T08:15:22.608Z,98637.03
2023-03-28T08:17:55.770Z,98643.34
2023-03-28T08:20:30.314Z,98649.06
2023-03-28T08:23:04.094Z,98643.59
2023-03-28T08:25:37.203Z,98639.38
2023-03-28T08:28:11.383Z,98636.63
2023-03-28T08:30:44.996Z,98654.56
2023-03-28T08:33:18.233Z,98640.72
2023-03-28T08:35:53.813Z,98663.94
2023-03-28T08:38:27.299Z,98658.78
2023-03-28T08:41:05.480Z,98678.66
2023-03-28T08:43:54.475Z,98676.59
2023-03-28T08:46:29.005Z,98677.03
2023-03-28T08:49:05.476Z,98680.81
2023-03-28T08:51:41.301Z,98699.78
2023-03-28T08:54:16.051Z,98704.81
2023-03-28T08:56:51.210Z,98707.28
2023-03-28T08:59:26.912Z,98707.28
2023-03-28T09:02:00.265Z,98712.97
2023-03-28T09:04:36.112Z,98713.47
2023-03-28T09:07:18.813Z,98718.34
2023-03-28T09:09:55.496Z,98702.13
2023-03-28T09:12:35.118Z,98725.06
2023-03-28T09:15:16.278Z,98731.34
2023-03-28T09:17:58.560Z,98731.78
2023-03-28T09:20:35.075Z,98732.19
2023-03-28T09:23:26.068Z,98737.38
2023-03-28T09:26:02.328Z,98738.34
2023-03-28T09:28:39.370Z,98745.06
2023-03-28T09:31:14.255Z,98769.25
2023-03-28T09:33:48.390Z,98750.63
2023-03-28T09:36:25.960Z,98747.84
2023-03-28T09:39:02.721Z,98739.06
2023-03-28T09:41:41.230Z,98756.09
2023-03-28T09:44:15.931Z,98750.66
2023-03-28T09:46:49.687Z,98767.84
2023-03-28T09:49:23.848Z,98766.06
2023-03-28T09:51:57.856Z,98773.88
2023-03-28T09:54:35.241Z,98794.47
2023-03-28T09:57:08.268Z,98770.13
2023-03-28T09:59:42.109Z,98789.25
2023-03-28T10:02:28.979Z,98782.00
2023-03-28T10:05:06.026Z,98774.84
2023-03-28T10:07:43.654Z,98781.31
2023-03-28T10:10:22.467Z,98787.06
2023-03-28T10:12:57.741Z,98798.81
2023-03-28T10:15:36.033Z,98798.53
2023-03-28T10:18:16.389Z,98819.50
2023-03-28T10:20:51.236Z,98818.94
2023-03-28T10:23:25.174Z,98800.06
2023-03-28T10:26:03.031Z,98811.97
2023-03-28T10:28:37.199Z,98807.22
2023-03-28T10:31:21.082Z,98792.38
2023-03-28T10:33:54.366Z,98789.84
2023-03-28T10:36:31.610Z,98799.50
2023-03-28T10:39:21.214Z,98814.19
2023-03-28T10:41:56.837Z,98813.50
2023-03-28T10:44:30.615Z,98825.41
2023-03-28T10:47:05.463Z,98818.53
2023-03-28T10:49:41.956Z,98831.81
2023-03-28T10:52:23.175Z,98819.66
2023-03-28T10:55:04.672Z,98814.63
2023-03-28T10:57:41.523Z,98843.75
2023-03-28T11:00:17.653Z,98816.13
2023-03-28T11:03:08.339Z,98848.94
2023-03-28T11:05:54.908Z,98846.13
2023-03-28T11:08:36.496Z,98822.47
2023-03-28T11:11:16.400Z,98812.66
2023-03-28T11:13:55.488Z,98854.50
2023-03-28T11:16:35.447Z,98840.03
2023-03-28T11:19:16.692Z,98847.66
2023-03-28T11:21:53.478Z,98825.81
2023-03-28T11:24:32.565Z,98832.69
2023-03-28T11:27:16.057Z,98841.72
2023-03-28T11:29:55.390Z,98827.16
2023-03-28T11:32:30.858Z,98842.16
2023-03-28T11:35:13.711Z,98837.94
2023-03-28T11:37:51.848Z,98834.91
2023-03-28T11:40:38.504Z,98837.84
2023-03-28T11:43:14.061Z,98834.34
2023-03-28T11:45:52.737Z,98852.50
2023-03-28T11:48:27.544Z,98850.19
2023-03-28T11:51:04.874Z,98837.47
2023-03-28T11:53:43.094Z,98854.06
2023-03-28T11:56:21.900Z,98850.00
2023-03-28T11:58:57.242Z,98857.38
2023-03-28T12:01:32.919Z,98880.31
2023-03-28T12:04:11.011Z,98858.28
2023-03-28T12:06:59.534Z,98856.00
2023-03-28T12:09:37.380Z,98852.13
2023-03-28T12:12:13.933Z,98855.28
2023-03-28T12:14:50.961Z,98876.03
2023-03-28T12:17:27.059Z,98869.78
2023-03-28T12:20:00.165Z,98862.19
2023-03-28T12:22:36.208Z,98876.78
2023-03-28T12:25:13.718Z,98884.75
2023-03-28T12:27:56.265Z,98875.34
2023-03-28T12:30:33.443Z,98889.91
2023-03-28T12:33:13.249Z,98873.16
2023-03-28T12:35:49.518Z,98891.78
2023-03-28T12:38:31.718Z,98884.16
2023-03-28T12:41:05.843Z,98886.28
2023-03-28T12:43:44.526Z,98902.13
2023-03-28T12:46:19.547Z,98893.28
2023-03-28T12:48:55.568Z,98903.50
2023-03-28T12:51:31.249Z,98899.47
2023-03-28T12:54:08.963Z,98904.34
2023-03-28T12:56:42.212Z,98901.56
2023-03-28T12:59:36.483Z,98907.09
2023-03-28T13:02:13.017Z,98915.91
2023-03-28T13:04:50.583Z,98903.53
2023-03-28T13:07:28.277Z,98917.06
2023-03-28T13:10:04.745Z,98918.13
2023-03-28T13:12:52.897Z,98930.22
2023-03-28T13:15:29.849Z,98925.53
2023-03-28T13:18:21.818Z,98920.59
2023-03-28T13:20:55.074Z,98911.53
2023-03-28T13:23:30.400Z,98931.16
2023-03-28T13:26:04.696Z,98936.84
2023-03-28T13:28:43.960Z,98944.78
2023-03-28T13:31:23.073Z,98930.88
2023-03-28T13:33:58.773Z,98944.31
2023-03-28T13:36:33.131Z,98928.94
2023-03-28T13:39:22.863Z,98916.03
2023-03-28T13:42:00.069Z,98946.19
2023-03-28T13:44:40.360Z,98953.91
2023-03-28T13:47:18.962Z,98971.34
2023-03-28T13:49:54.196Z,98956.19
2023-03-28T13:52:27.198Z,98960.22
2023-03-28T13:55:03.909Z,98958.03
2023-03-28T13:57:37.717Z,98960.22
2023-03-28T14:00:16.367Z,98962.19
2023-03-28T14:02:51.904Z,98972.09
2023-03-28T14:05:25.932Z,98973.94
2023-03-28T14:08:03.830Z,98970.91
2023-03-28T14:10:38.268Z,98994.84
2023-03-28T14:13:14.902Z,98987.94
2023-03-28T14:15:48.013Z,98984.22
2023-03-28T14:18:28.658Z,98979.03
2023-03-28T14:21:02.343Z,98990.97
2023-03-28T14:23:37.175Z,99008.28
2023-03-28T14:26:16.498Z,99021.78
2023-03-28T14:28:51.592Z,99021.97
2023-03-28T14:31:32.668Z,99006.97
2023-03-28T14:34:16.548Z,99010.59
2023-03-28T14:36:59.084Z,99031.31
2023-03-28T14:39:33.200Z,99033.00
2023-03-28T14:42:08.446Z,99035.66
2023-03-28T14:44:42.865Z,99038.09
2023-03-28T14:47:17.907Z,99048.06
2023-03-28T14:49:55.814Z,99029.09
2023-03-28T14:52:30.757Z,99053.38
2023-03-28T14:55:04.794Z,99051.50
2023-03-28T14:57:38.306Z,99064.00
2023-03-28T15:00:15.213Z,99051.84
2023-03-28T15:02:50.471Z,99064.06
2023-03-28T15:05:25.282Z,99064.13
2023-03-28T15:08:00.897Z,99072.41
2023-03-28T15:10:34.598Z,99086.72
2023-03-28T15:13:13.471Z,99077.84
2023-03-28T15:15:48.554Z,99087.69
2023-03-28T15:18:28.554Z,99090.81
2023-03-28T15:21:04.517Z,99103.16
2023-03-28T15:23:40.972Z,99099.06
2023-03-28T15:26:17.131Z,99110.88
2023-03-28T15:28:52.756Z,99105.00
2023-03-28T15:31:26.215Z,99116.88
2023-03-28T15:33:59.558Z,99121.41
2023-03-28T15:36:34.886Z,99128.16
2023-03-28T15:39:18.214Z,99132.16
2023-03-28T15:41:54.854Z,99140.66
2023-03-28T15:44:29.360Z,99066.88
2023-03-28T15:47:04.398Z,99150.19
2023-03-28T15:49:38.204Z,99151.69
2023-03-28T15:52:18.657Z,99156.72
2023-03-28T15:54:53.274Z,99160.56
2023-03-28T15:57:29.538Z,99171.06
2023-03-28T16:00:02.516Z,99171.94
2023-03-28T16:02:37.343Z,99188.81
2023-03-28T16:05:27.037Z,99196.94
2023-03-28T16:08:02.513Z,99188.44
2023-03-28T16:10:35.900Z,99193.16
2023-03-28T16:13:15.016Z,99204.03
2023-03-28T16:15:51.085Z,99199.78
2023-03-28T16:18:24.304Z,99208.53
2023-03-28T16:20:57.146Z,99220.94
2023-03-28T16:23:31.645Z,99214.16
2023-03-28T16:26:04.782Z,99211.56
2023-03-28T16:28:37.820Z,99230.38
2023-03-28T16:31:14.128Z,99226.75
2023-03-28T16:33:47.282Z,99238.69
2023-03-28T16:36:20.310Z,99251.13
2023-03-28T16:38:54.736Z,99250.38
2023-03-28T16:41:27.866Z,99250.28
2023-03-28T16:44:01.107Z,99257.00
2023-03-28T16:46:34.444Z,99260.91
2023-03-28T16:49:07.456Z,99270.91
2023-03-28T16:51:40.661Z,99273.16
2023-03-28T16:54:15.063Z,99281.97
2023-03-28T16:56:48.544Z,99273.53
2023-03-28T16:59:22.054Z,99272.09
2023-03-28T17:01:56.047Z,99276.06
2023-03-28T17:04:30.042Z,99285.97
2023-03-28T17:07:03.138Z,99290.41
2023-03-28T17:09:38.154Z,99301.13
2023-03-28T17:12:11.785Z,99296.34
2023-03-28T17:14:46.008Z,99302.09
2023-03-28T17:17:19.695Z,99305.56
2023-03-28T17:19:53.019Z,99313.19
2023-03-28T17:22:27.312Z,99322.59
2023-03-28T17:25:02.323Z,99324.41
2023-03-28T17:27:35.520Z,99333.09
2023-03-28T17:30:09.679Z,99339.66
2023-03-28T17:32:43.680Z,99334.47
2023-03-28T17:35:17.299Z,99339.19
2023-03-28T17:37:52.701Z,99358.00
2023-03-28T17:40:27.296Z,99357.13
2023-03-28T17:43:00.266Z,99379.50
2023-03-28T17:45:33.596Z,99387.16
2023-03-28T17:48:06.928Z,99383.88
2023-03-28T17:50:40.248Z,99395.31
2023-03-28T17:53:13.440Z,99394.84
2023-03-28T17:55:48.396Z,99407.13
2023-03-28T17:58:21.378Z,99400.53
2023-03-28T18:00:54.814Z,99408.16
2023-03-28T18:03:28.156Z,99416.34
2023-03-28T18:06:02.060Z,99415.34
2023-03-28T18:08:35.634Z,99414.03
2023-03-28T18:11:12.021Z,99416.59
2023-03-28T18:13:45.370Z,99427.50
2023-03-28T18:16:19.232Z,99428.75
2023-03-28T18:18:54.243Z,99439.13
2023-03-28T18:21:27.749Z,99450.88
2023-03-28T18:24:00.920Z,99455.75
2023-03-28T18:26:35.272Z,99454.91
2023-03-28T18:29:08.878Z,99474.44
2023-03-28T18:31:43.311Z,99478.09
2023-03-28T18:34:16.502Z,99479.81
2023-03-28T18:36:49.441Z,99485.56
2023-03-28T18:39:23.258Z,99485.78
2023-03-28T18:41:57.659Z,99489.28
2023-03-28T18:44:33.399Z,99490.91
2023-03-28T18:47:06.913Z,99496.53
2023-03-28T18:49:41.056Z,99499.03
2023-03-28T18:52:14.208Z,99501.22
2023-03-28T18:54:50.719Z,99502.41
2023-03-28T18:57:26.820Z,99513.28
2023-03-28T19:00:00.051Z,99502.59
2023-03-28T19:02:33.323Z,99516.97
2023-03-28T19:05:07.124Z,99519.44
2023-03-28T19:07:40.380Z,99522.00
2023-03-28T19:10:14.157Z,99514.78
2023-03-28T19:12:51.000Z,99523.50
2023-03-28T19:15:25.923Z,99526.88
2023-03-28T19:18:02.276Z,99528.13
2023-03-28T19:20:36.864Z,99528.91
2023-03-28T19:23:09.867Z,99516.47
2023-03-28T19:25:43.595Z,99536.84
2023-03-28T19:28:18.818Z,99541.94
2023-03-28T19:30:57.366Z,99548.91
2023-03-28T19:33:30.987Z,99543.41
2023-03-28T19:36:05.777Z,99547.75
2023-03-28T19:38:40.155Z,99552.06
2023-03-28T19:41:17.146Z,99551.44
2023-03-28T19:43:51.635Z,99553.81
2023-03-28T19:46:33.697Z,99553.78
2023-03-28T19:49:08.131Z,99560.91
2023-03-28T19:51:41.424Z,99557.50
2023-03-28T19:54:15.343Z,99554.72
2023-03-28T19:56:48.838Z,99560.91
2023-03-28T19:59:23.493Z,99567.56
2023-03-28T20:01:56.736Z,99565.91
2023-03-28T20:04:30.773Z,99566.94
2023-03-28T20:07:04.093Z,99581.19
2023-03-28T20:09:37.194Z,99568.94
2023-03-28T20:12:11.150Z,99580.25
2023-03-28T20:14:46.763Z,99582.09
2023-03-28T20:17:20.696Z,99580.25
2023-03-28T20:19:53.999Z,99489.50
2023-03-28T20:22:29.746Z,99591.13
2023-03-28T20:25:02.979Z,99601.59
2023-03-28T20:27:37.252Z,99604.09
2023-03-28T20:30:13.927Z,99612.41
2023-03-28T20:32:49.625Z,99611.22
2023-03-28T20:35:22.929Z,99610.22
2023-03-28T20:37:56.102Z,99612.81
2023-03-28T20:40:29.274Z,99599.44
2023-03-28T20:43:03.006Z,99609.75
2023-03-28T20:45:39.746Z,99599.13
2023-03-28T20:48:16.403Z,99602.34
2023-03-28T20:50:49.455Z,99610.03
2023-03-28T20:53:22.687Z,99604.94
2023-03-28T20:56:00.431Z,99608.22
2023-03-28T20:58:34.228Z,99611.13
2023-03-28T21:01:10.652Z,99606.84
2023-03-28T21:03:53.781Z,99598.91
2023-03-28T21:06:29.761Z,99612.66
2023-03-28T21:09:04.654Z,99611.06
2023-03-28T21:11:38.424Z,99629.31
2023-03-28T21:14:13.220Z,99618.81
2023-03-28T21:16:50.012Z,99616.03
2023-03-28T21:19:23.256Z,99623.25
2023-03-28T21:21:57.127Z,99618.88
2023-03-28T21:24:30.235Z,99618.25
2023-03-28T21:27:03.408Z,99621.16
2023-03-28T21:29:36.426Z,99634.81
2023-03-28T21:32:11.356Z,99628.22
2023-03-28T21:34:44.880Z,99634.16
2023-03-28T21:37:18.145Z,99653.84
2023-03-28T21:39:51.553Z,99644.84
2023-03-28T21:42:24.872Z,99668.00
2023-03-28T21:44:58.151Z,99653.13
2023-03-28T21:47:32.589Z,99662.91
2023-03-28T21:50:06.081Z,99665.34
2023-03-28T21:52:39.293Z,99660.16
2023-03-28T21:55:12.344Z,99665.56
2023-03-28T21:57:45.386Z,99675.72
2023-03-28T22:00:18.637Z,99683.00
2023-03-28T22:02:54.346Z,99624.97
2023-03-28T22:05:29.686Z,99687.44
2023-03-28T22:08:04.622Z,99692.91
2023-03-28T22:10:37.916Z,99693.28
2023-03-28T22:13:12.148Z,99690.94
2023-03-28T22:15:45.870Z,99704.72
2023-03-28T22:18:21.088Z,99710.75
2023-03-28T22:20:54.338Z,99710.94
2023-03-28T22:23:27.414Z,99706.22
2023-03-28T22:26:00.703Z,99716.13
2023-03-28T22:28:33.772Z,99709.50
2023-03-28T22:31:07.232Z,99706.41
2023-03-28T22:33:41.989Z,99715.84
2023-03-28T22:36:15.628Z,99719.00
2023-03-28T22:38:48.701Z,99715.59
2023-03-28T22:41:21.769Z,99716.84
2023-03-28T22:43:54.701Z,99726.72
2023-03-28T22:46:27.750Z,99714.44
2023-03-28T22:49:04.618Z,99716.81
2023-03-28T22:51:43.937Z,99722.59
2023-03-28T22:54:21.049Z,99732.69
2023-03-28T22:56:54.057Z,99731.81
2023-03-28T22:59:28.087Z,99747.31
2023-03-28T23:02:01.410Z,99739.00
2023-03-28T23:04:36.189Z,99751.34
2023-03-28T23:07:09.141Z,99749.22
2023-03-28T23:09:43.148Z,99752.63
2023-03-28T23:12:16.684Z,99755.34
2023-03-28T23:14:50.341Z,99766.88
2023-03-28T23:17:25.077Z,99765.25
2023-03-28T23:20:00.527Z,99762.19
2023-03-28T23:22:33.563Z,99767.84
2023-03-28T23:25:06.957Z,99768.63
2023-03-28T23:27:40.574Z,99760.16
2023-03-28T23:30:14.666Z,99763.31
2023-03-28T23:32:47.977Z,99769.78
2023-03-28T23:35:22.518Z,99771.66
2023-03-28T23:37:55.454Z,99765.41
2023-03-28T23:40:29.150Z,99774.88
2023-03-28T23:43:02.459Z,99780.75
2023-03-28T23:45:35.687Z,99778.53
2023-03-28T23:48:09.321Z,99773.94
2023-03-28T23:50:43.823Z,99792.69
2023-03-28T23:53:16.750Z,99774.78
2023-03-28T23:55:49.649Z,99775.66
2023-03-28T23:58:22.732Z,99773.94
